Lake San Marcos, California
Current Conditions -  °F | °C
As of 8:53 AM on Friday 26 Dec 2014 (Local Time) from KCRQ Reporting Station
Clear Clear  
Wind Chill: 53°   Ceiling: Unl
Heat Index: 53°   Visibility: 10mi
Dew Point: 21°   Wind: 3mph
Humidity: 29%   Direction: 60°ENE
Pressure: 30.06"   Gusts: NA
Location:  33.1507°N, 117.174°W
Report Text: KCRQ 261653Z 06003KT 10SM CLR 12/M06 A3006 RMK AO2 SLP178 T01171061 $
Loading
Personal Weather Stations






























Interactive Weather Map New forecast layout! Learn more

10-Day Weather Forecast

Advertisements
Track Severe Weather on mobile